sensor_id;sensor_type;location;lat;lon;timestamp;pressure;altitude;pressure_sealevel;temperature;humidity
40574;BME280;26283;49.020;8.644;2023-09-07T00:00:39;99536.66;;;25.93;50.20
40574;BME280;26283;49.020;8.644;2023-09-07T00:03:04;99543.31;;;25.92;50.18
40574;BME280;26283;49.020;8.644;2023-09-07T00:05:30;99544.44;;;25.91;50.13
40574;BME280;26283;49.020;8.644;2023-09-07T00:07:56;99547.19;;;25.91;50.07
40574;BME280;26283;49.020;8.644;2023-09-07T00:10:21;99543.13;;;25.89;49.99
40574;BME280;26283;49.020;8.644;2023-09-07T00:12:47;99546.19;;;25.87;49.90
40574;BME280;26283;49.020;8.644;2023-09-07T00:15:12;99541.78;;;25.86;49.86
40574;BME280;26283;49.020;8.644;2023-09-07T00:17:37;99541.78;;;25.86;49.86
40574;BME280;26283;49.020;8.644;2023-09-07T00:20:03;99544.88;;;25.85;49.85
40574;BME280;26283;49.020;8.644;2023-09-07T00:22:55;99543.22;;;25.84;49.81
40574;BME280;26283;49.020;8.644;2023-09-07T00:25:20;99540.78;;;25.82;49.73
40574;BME280;26283;49.020;8.644;2023-09-07T00:27:46;99539.16;;;25.81;49.74
40574;BME280;26283;49.020;8.644;2023-09-07T00:30:12;99536.69;;;25.80;49.75
40574;BME280;26283;49.020;8.644;2023-09-07T00:32:37;99538.63;;;25.79;49.72
40574;BME280;26283;49.020;8.644;2023-09-07T00:35:04;99539.78;;;25.78;49.74
40574;BME280;26283;49.020;8.644;2023-09-07T00:37:30;99531.00;;;25.76;49.75
40574;BME280;26283;49.020;8.644;2023-09-07T00:39:56;99536.03;;;25.74;49.73
40574;BME280;26283;49.020;8.644;2023-09-07T00:42:21;99530.50;;;25.74;49.71
40574;BME280;26283;49.020;8.644;2023-09-07T00:44:46;99536.34;;;25.73;49.72
40574;BME280;26283;49.020;8.644;2023-09-07T00:47:13;99544.63;;;25.73;49.70
40574;BME280;26283;49.020;8.644;2023-09-07T00:49:39;99537.47;;;25.72;49.74
40574;BME280;26283;49.020;8.644;2023-09-07T00:52:05;99533.06;;;25.71;49.71
40574;BME280;26283;49.020;8.644;2023-09-07T00:54:32;99536.13;;;25.69;49.71
40574;BME280;26283;49.020;8.644;2023-09-07T00:56:59;99537.25;;;25.68;49.69
40574;BME280;26283;49.020;8.644;2023-09-07T00:59:25;99532.06;;;25.67;49.68
40574;BME280;26283;49.020;8.644;2023-09-07T01:01:50;99529.59;;;25.65;49.68
40574;BME280;26283;49.020;8.644;2023-09-07T01:04:15;99530.72;;;25.64;49.65
40574;BME280;26283;49.020;8.644;2023-09-07T01:06:54;99532.69;;;25.64;49.67
40574;BME280;26283;49.020;8.644;2023-09-07T01:09:24;99535.72;;;25.62;49.96
40574;BME280;26283;49.020;8.644;2023-09-07T01:11:50;99531.31;;;25.61;49.69
40574;BME280;26283;49.020;8.644;2023-09-07T01:14:17;99531.62;;;25.59;49.62
40574;BME280;26283;49.020;8.644;2023-09-07T01:16:43;99533.88;;;25.57;49.63
40574;BME280;26283;49.020;8.644;2023-09-07T01:19:08;99531.13;;;25.57;49.56
40574;BME280;26283;49.020;8.644;2023-09-07T01:21:36;99528.66;;;25.56;49.60
40574;BME280;26283;49.020;8.644;2023-09-07T01:24:07;99523.50;;;25.54;49.61
40574;BME280;26283;49.020;8.644;2023-09-07T01:26:33;99527.38;;;25.53;49.72
40574;BME280;26283;49.020;8.644;2023-09-07T01:29:00;99523.78;;;25.53;49.54
40574;BME280;26283;49.020;8.644;2023-09-07T01:31:26;99528.81;;;25.51;49.53
40574;BME280;26283;49.020;8.644;2023-09-07T01:33:51;99523.28;;;25.51;49.49
40574;BME280;26283;49.020;8.644;2023-09-07T01:36:17;99529.13;;;25.49;49.41
40574;BME280;26283;49.020;8.644;2023-09-07T01:38:42;99527.47;;;25.48;49.42
40574;BME280;26283;49.020;8.644;2023-09-07T01:41:07;99528.59;;;25.47;49.40
40574;BME280;26283;49.020;8.644;2023-09-07T01:43:33;99526.16;;;25.46;49.33
40574;BME280;26283;49.020;8.644;2023-09-07T01:45:58;99527.28;;;25.45;49.35
40574;BME280;26283;49.020;8.644;2023-09-07T01:48:24;99528.41;;;25.44;49.36
40574;BME280;26283;49.020;8.644;2023-09-07T01:50:56;99523.19;;;25.42;49.29
40574;BME280;26283;49.020;8.644;2023-09-07T01:53:21;99529.84;;;25.41;49.39
40574;BME280;26283;49.020;8.644;2023-09-07T01:55:46;99528.22;;;25.40;49.26
40574;BME280;26283;49.020;8.644;2023-09-07T01:58:13;99529.63;;;25.38;49.24
40574;BME280;26283;49.020;8.644;2023-09-07T02:00:38;99533.53;;;25.37;49.19
40574;BME280;26283;49.020;8.644;2023-09-07T02:03:05;99528.00;;;25.37;49.13
40574;BME280;26283;49.020;8.644;2023-09-07T02:05:30;99531.88;;;25.36;49.08
40574;BME280;26283;49.020;8.644;2023-09-07T02:07:57;99528.63;;;25.34;48.99
40574;BME280;26283;49.020;8.644;2023-09-07T02:10:23;99534.13;;;25.34;48.94
40574;BME280;26283;49.020;8.644;2023-09-07T02:12:48;99524.25;;;25.33;48.88
40574;BME280;26283;49.020;8.644;2023-09-07T02:15:14;99530.09;;;25.31;48.84
40574;BME280;26283;49.020;8.644;2023-09-07T02:17:39;99531.22;;;25.30;48.83
40574;BME280;26283;49.020;8.644;2023-09-07T02:20:05;99523.25;;;25.28;48.83
40574;BME280;26283;49.020;8.644;2023-09-07T02:22:35;99528.25;;;25.26;48.75
40574;BME280;26283;49.020;8.644;2023-09-07T02:25:01;99521.09;;;25.25;48.70
40574;BME280;26283;49.020;8.644;2023-09-07T02:27:27;99524.97;;;25.24;48.69
40574;BME280;26283;49.020;8.644;2023-09-07T02:29:52;99521.72;;;25.22;48.65
40574;BME280;26283;49.020;8.644;2023-09-07T02:32:18;99525.59;;;25.21;48.63
40574;BME280;26283;49.020;8.644;2023-09-07T02:34:44;99528.34;;;25.21;48.54
40574;BME280;26283;49.020;8.644;2023-09-07T02:37:09;99525.91;;;25.20;48.55
40574;BME280;26283;49.020;8.644;2023-09-07T02:39:34;99527.84;;;25.19;48.60
40574;BME280;26283;49.020;8.644;2023-09-07T02:42:00;99530.09;;;25.17;48.60
40574;BME280;26283;49.020;8.644;2023-09-07T02:44:25;99531.22;;;25.16;48.56
40574;BME280;26283;49.020;8.644;2023-09-07T02:46:51;99526.81;;;25.15;48.58
40574;BME280;26283;49.020;8.644;2023-09-07T02:49:16;99527.94;;;25.14;48.54
40574;BME280;26283;49.020;8.644;2023-09-07T02:51:41;99523.53;;;25.13;48.48
40574;BME280;26283;49.020;8.644;2023-09-07T02:54:07;99513.16;;;25.10;48.51
40574;BME280;26283;49.020;8.644;2023-09-07T02:56:32;99519.50;;;25.11;48.53
40574;BME280;26283;49.020;8.644;2023-09-07T02:58:57;99517.03;;;25.09;48.57
40574;BME280;26283;49.020;8.644;2023-09-07T03:01:23;99515.41;;;25.08;48.53
40574;BME280;26283;49.020;8.644;2023-09-07T03:03:48;99514.91;;;25.06;48.46
40574;BME280;26283;49.020;8.644;2023-09-07T03:06:14;99510.50;;;25.05;48.46
40574;BME280;26283;49.020;8.644;2023-09-07T03:08:41;99514.38;;;25.04;48.49
40574;BME280;26283;49.020;8.644;2023-09-07T03:11:07;99518.25;;;25.03;48.57
40574;BME280;26283;49.020;8.644;2023-09-07T03:13:33;99513.87;;;25.02;48.53
40574;BME280;26283;49.020;8.644;2023-09-07T03:16:00;99511.41;;;25.01;48.46
40574;BME280;26283;49.020;8.644;2023-09-07T03:18:25;99500.69;;;24.99;48.50
40574;BME280;26283;49.020;8.644;2023-09-07T03:20:53;99501.81;;;24.98;48.53
40574;BME280;26283;49.020;8.644;2023-09-07T03:23:19;99502.94;;;24.97;48.54
40574;BME280;26283;49.020;8.644;2023-09-07T03:25:45;99506.81;;;24.96;48.51
40574;BME280;26283;49.020;8.644;2023-09-07T03:28:10;99505.47;;;24.93;48.58
40574;BME280;26283;49.020;8.644;2023-09-07T03:30:35;99509.03;;;24.94;48.63
40574;BME280;26283;49.020;8.644;2023-09-07T03:33:01;99504.94;;;24.91;48.71
40574;BME280;26283;49.020;8.644;2023-09-07T03:35:28;99503.31;;;24.90;48.68
40574;BME280;26283;49.020;8.644;2023-09-07T03:37:53;99507.22;;;24.89;48.70
40574;BME280;26283;49.020;8.644;2023-09-07T03:40:19;99508.66;;;24.87;48.76
40574;BME280;26283;49.020;8.644;2023-09-07T03:42:44;99498.75;;;24.86;48.76
40574;BME280;26283;49.020;8.644;2023-09-07T03:45:11;99499.88;;;24.85;48.80
40574;BME280;26283;49.020;8.644;2023-09-07T03:47:37;99508.44;;;24.83;48.83
40574;BME280;26283;49.020;8.644;2023-09-07T03:50:02;99499.34;;;24.83;48.93
40574;BME280;26283;49.020;8.644;2023-09-07T03:52:31;99504.34;;;24.81;48.95
40574;BME280;26283;49.020;8.644;2023-09-07T03:54:57;99499.97;;;24.80;49.03
40574;BME280;26283;49.020;8.644;2023-09-07T03:57:24;99494.44;;;24.80;48.90
40574;BME280;26283;49.020;8.644;2023-09-07T03:59:50;99503.31;;;24.77;49.03
40574;BME280;26283;49.020;8.644;2023-09-07T04:02:16;99504.44;;;24.76;49.01
40574;BME280;26283;49.020;8.644;2023-09-07T04:04:43;99511.91;;;24.75;49.00
40574;BME280;26283;49.020;8.644;2023-09-07T04:07:08;99505.56;;;24.75;49.03
40574;BME280;26283;49.020;8.644;2023-09-07T04:09:34;99509.44;;;24.74;49.08
40574;BME280;26283;49.020;8.644;2023-09-07T04:12:00;99505.06;;;24.73;49.05
40574;BME280;26283;49.020;8.644;2023-09-07T04:14:26;99505.37;;;24.71;49.15
40574;BME280;26283;49.020;8.644;2023-09-07T04:16:51;99505.66;;;24.70;49.13
40574;BME280;26283;49.020;8.644;2023-09-07T04:19:16;99507.59;;;24.69;49.19
40574;BME280;26283;49.020;8.644;2023-09-07T04:21:42;99513.44;;;24.68;49.31
40574;BME280;26283;49.020;8.644;2023-09-07T04:24:07;99512.94;;;24.66;49.19
40574;BME280;26283;49.020;8.644;2023-09-07T04:26:33;99508.53;;;24.65;49.22
40574;BME280;26283;49.020;8.644;2023-09-07T04:29:01;99509.66;;;24.64;49.31
40574;BME280;26283;49.020;8.644;2023-09-07T04:31:29;99507.22;;;24.62;49.39
40574;BME280;26283;49.020;8.644;2023-09-07T04:33:55;99505.56;;;24.61;49.34
40574;BME280;26283;49.020;8.644;2023-09-07T04:36:20;99506.69;;;24.60;49.40
40574;BME280;26283;49.020;8.644;2023-09-07T04:38:45;99507.00;;;24.58;49.48
40574;BME280;26283;49.020;8.644;2023-09-07T04:41:12;99499.84;;;24.57;49.51
40574;BME280;26283;49.020;8.644;2023-09-07T04:43:42;99504.03;;;24.55;49.65
40574;BME280;26283;49.020;8.644;2023-09-07T04:46:11;99498.84;;;24.53;49.73
40574;BME280;26283;49.020;8.644;2023-09-07T04:48:37;99504.34;;;24.53;49.63
40574;BME280;26283;49.020;8.644;2023-09-07T04:51:06;99508.22;;;24.52;49.63
40574;BME280;26283;49.020;8.644;2023-09-07T04:53:33;99509.34;;;24.51;49.66
40574;BME280;26283;49.020;8.644;2023-09-07T04:56:00;99506.88;;;24.50;49.58
40574;BME280;26283;49.020;8.644;2023-09-07T04:58:25;99511.88;;;24.48;49.58
40574;BME280;26283;49.020;8.644;2023-09-07T05:00:51;99509.94;;;24.48;49.70
40574;BME280;26283;49.020;8.644;2023-09-07T05:03:16;99514.97;;;24.46;49.69
40574;BME280;26283;49.020;8.644;2023-09-07T05:05:42;99507.81;;;24.45;49.73
40574;BME280;26283;49.020;8.644;2023-09-07T05:08:09;99510.88;;;24.44;49.75
40574;BME280;26283;49.020;8.644;2023-09-07T05:10:38;99512.81;;;24.43;49.75
40574;BME280;26283;49.020;8.644;2023-09-07T05:13:03;99511.19;;;24.42;49.86
40574;BME280;26283;49.020;8.644;2023-09-07T05:15:29;99509.53;;;24.41;49.91
40574;BME280;26283;49.020;8.644;2023-09-07T05:17:54;99512.59;;;24.40;49.95
40574;BME280;26283;49.020;8.644;2023-09-07T05:20:20;99503.81;;;24.38;49.90
40574;BME280;26283;49.020;8.644;2023-09-07T05:22:46;99508.50;;;24.37;50.03
40574;BME280;26283;49.020;8.644;2023-09-07T05:25:12;99498.59;;;24.36;50.01
40574;BME280;26283;49.020;8.644;2023-09-07T05:27:40;99508.81;;;24.36;50.04
40574;BME280;26283;49.020;8.644;2023-09-07T05:30:06;99510.22;;;24.33;50.03
40574;BME280;26283;49.020;8.644;2023-09-07T05:32:32;99514.91;;;24.33;50.14
40574;BME280;26283;49.020;8.644;2023-09-07T05:34:57;99518.78;;;24.32;50.23
40574;BME280;26283;49.020;8.644;2023-09-07T05:37:23;99511.94;;;24.29;50.31
40574;BME280;26283;49.020;8.644;2023-09-07T05:39:48;99514.72;;;24.29;50.32
40574;BME280;26283;49.020;8.644;2023-09-07T05:42:14;99521.34;;;24.28;50.40
40574;BME280;26283;49.020;8.644;2023-09-07T05:44:40;99523.28;;;24.27;50.57
40574;BME280;26283;49.020;8.644;2023-09-07T05:47:05;99527.97;;;24.27;50.67
40574;BME280;26283;49.020;8.644;2023-09-07T05:49:30;99523.56;;;24.26;50.62
40574;BME280;26283;49.020;8.644;2023-09-07T05:51:56;99529.41;;;24.24;50.71
40574;BME280;26283;49.020;8.644;2023-09-07T05:54:21;99538.75;;;24.23;50.77
40574;BME280;26283;49.020;8.644;2023-09-07T05:56:47;99538.75;;;24.23;50.80
40574;BME280;26283;49.020;8.644;2023-09-07T05:59:12;99532.44;;;24.23;50.89
40574;BME280;26283;49.020;8.644;2023-09-07T06:01:39;99536.59;;;24.20;51.01
40574;BME280;26283;49.020;8.644;2023-09-07T06:04:05;99531.91;;;24.21;51.00
40574;BME280;26283;49.020;8.644;2023-09-07T06:06:31;99537.72;;;24.19;50.98
40574;BME280;26283;49.020;8.644;2023-09-07T06:08:56;99537.72;;;24.19;51.00
40574;BME280;26283;49.020;8.644;2023-09-07T06:11:23;99539.94;;;24.17;51.11
40574;BME280;26283;49.020;8.644;2023-09-07T06:13:49;99539.13;;;24.17;51.23
40574;BME280;26283;49.020;8.644;2023-09-07T06:16:14;99538.31;;;24.16;51.21
40574;BME280;26283;49.020;8.644;2023-09-07T06:18:42;99529.25;;;24.16;51.28
40574;BME280;26283;49.020;8.644;2023-09-07T06:21:07;99527.59;;;24.15;51.33
40574;BME280;26283;49.020;8.644;2023-09-07T06:23:33;99535.87;;;24.15;51.35
40574;BME280;26283;49.020;8.644;2023-09-07T06:25:59;99538.63;;;24.15;51.41
40574;BME280;26283;49.020;8.644;2023-09-07T06:28:24;99539.72;;;24.14;51.51
40574;BME280;26283;49.020;8.644;2023-09-07T06:30:50;99536.16;;;24.13;51.58
40574;BME280;26283;49.020;8.644;2023-09-07T06:33:15;99542.78;;;24.12;51.63
40574;BME280;26283;49.020;8.644;2023-09-07T06:35:40;99549.09;;;24.13;51.62
40574;BME280;26283;49.020;8.644;2023-09-07T06:38:06;99548.28;;;24.12;51.59
40574;BME280;26283;49.020;8.644;2023-09-07T06:40:31;99556.25;;;24.14;51.78
40574;BME280;26283;49.020;8.644;2023-09-07T06:43:00;99560.13;;;24.13;51.87
40574;BME280;26283;49.020;8.644;2023-09-07T06:45:25;99560.94;;;24.13;51.87
40574;BME280;26283;49.020;8.644;2023-09-07T06:47:52;99559.00;;;24.14;51.83
40574;BME280;26283;49.020;8.644;2023-09-07T06:50:18;99568.38;;;24.13;51.91
40574;BME280;26283;49.020;8.644;2023-09-07T06:52:44;99564.50;;;24.14;51.92
40574;BME280;26283;49.020;8.644;2023-09-07T06:55:09;99568.09;;;24.14;51.92
40574;BME280;26283;49.020;8.644;2023-09-07T06:57:34;99559.31;;;24.12;51.88
40574;BME280;26283;49.020;8.644;2023-09-07T07:00:00;99566.16;;;24.15;51.99
40574;BME280;26283;49.020;8.644;2023-09-07T07:02:26;99580.75;;;24.15;52.69
40574;BME280;26283;49.020;8.644;2023-09-07T07:04:51;99580.44;;;24.17;52.82
40574;BME280;26283;49.020;8.644;2023-09-07T07:07:17;99579.31;;;24.18;52.91
40574;BME280;26283;49.020;8.644;2023-09-07T07:09:43;99590.03;;;24.19;53.02
40574;BME280;26283;49.020;8.644;2023-09-07T07:12:08;99586.16;;;24.20;53.07
40574;BME280;26283;49.020;8.644;2023-09-07T07:14:34;99591.38;;;24.22;53.12
40574;BME280;26283;49.020;8.644;2023-09-07T07:17:02;99590.25;;;24.23;53.20
40574;BME280;26283;49.020;8.644;2023-09-07T07:19:31;99583.94;;;24.22;53.21
40574;BME280;26283;49.020;8.644;2023-09-07T07:21:56;99582.81;;;24.23;53.23
40574;BME280;26283;49.020;8.644;2023-09-07T07:24:21;99575.41;;;24.24;53.30
40574;BME280;26283;49.020;8.644;2023-09-07T07:26:47;99585.28;;;24.25;53.35
40574;BME280;26283;49.020;8.644;2023-09-07T07:29:13;99585.78;;;24.27;53.36
40574;BME280;26283;49.020;8.644;2023-09-07T07:31:38;99583.84;;;24.27;53.40
40574;BME280;26283;49.020;8.644;2023-09-07T07:34:04;99583.56;;;24.29;53.43
40574;BME280;26283;49.020;8.644;2023-09-07T07:36:29;99588.78;;;24.31;53.46
40574;BME280;26283;49.020;8.644;2023-09-07T07:38:56;99586.84;;;24.31;53.46
40574;BME280;26283;49.020;8.644;2023-09-07T07:41:21;99581.84;;;24.33;53.48
40574;BME280;26283;49.020;8.644;2023-09-07T07:43:47;99584.28;;;24.35;53.43
40574;BME280;26283;49.020;8.644;2023-09-07T07:46:12;99576.56;;;24.37;53.42
40574;BME280;26283;49.020;8.644;2023-09-07T07:48:41;99580.66;;;24.39;53.41
40574;BME280;26283;49.020;8.644;2023-09-07T07:51:06;99575.13;;;24.39;53.35
40574;BME280;26283;49.020;8.644;2023-09-07T07:53:31;99570.16;;;24.41;53.36
40574;BME280;26283;49.020;8.644;2023-09-07T07:55:57;99576.16;;;24.43;53.44
40574;BME280;26283;49.020;8.644;2023-09-07T07:58:22;99578.62;;;24.45;53.48
40574;BME280;26283;49.020;8.644;2023-09-07T08:00:48;99578.31;;;24.46;53.53
40574;BME280;26283;49.020;8.644;2023-09-07T08:03:14;99569.44;;;24.49;53.53
40574;BME280;26283;49.020;8.644;2023-09-07T08:05:40;99575.47;;;24.51;53.54
40574;BME280;26283;49.020;8.644;2023-09-07T08:08:05;99575.97;;;24.53;53.51
40574;BME280;26283;49.020;8.644;2023-09-07T08:10:37;99566.59;;;24.54;53.47
40574;BME280;26283;49.020;8.644;2023-09-07T08:13:03;99574.56;;;24.56;53.40
40574;BME280;26283;49.020;8.644;2023-09-07T08:15:29;99577.00;;;24.57;52.95
40574;BME280;26283;49.020;8.644;2023-09-07T08:17:54;99576.72;;;24.59;53.07
40574;BME280;26283;49.020;8.644;2023-09-07T08:20:20;99578.03;;;24.62;52.73
40574;BME280;26283;49.020;8.644;2023-09-07T08:22:46;99573.34;;;24.62;52.65
40574;BME280;26283;49.020;8.644;2023-09-07T08:25:12;99574.69;;;24.65;52.33
40574;BME280;26283;49.020;8.644;2023-09-07T08:27:42;99576.84;;;24.68;52.24
40574;BME280;26283;49.020;8.644;2023-09-07T08:30:14;99577.31;;;24.70;52.24
40574;BME280;26283;49.020;8.644;2023-09-07T08:32:41;99572.31;;;24.72;52.23
40574;BME280;26283;49.020;8.644;2023-09-07T08:35:09;99580.28;;;24.73;52.18
40574;BME280;26283;49.020;8.644;2023-09-07T08:37:38;99572.22;;;24.77;52.11
40574;BME280;26283;49.020;8.644;2023-09-07T08:40:04;99574.69;;;24.78;52.02
40574;BME280;26283;49.020;8.644;2023-09-07T08:42:31;99573.28;;;24.81;51.96
40574;BME280;26283;49.020;8.644;2023-09-07T08:45:00;99572.66;;;24.84;51.91
40574;BME280;26283;49.020;8.644;2023-09-07T08:47:28;99567.66;;;24.86;51.86
40574;BME280;26283;49.020;8.644;2023-09-07T08:49:57;99567.88;;;24.89;51.83
40574;BME280;26283;49.020;8.644;2023-09-07T08:52:23;99571.94;;;24.92;51.82
40574;BME280;26283;49.020;8.644;2023-09-07T08:54:49;99565.84;;;24.95;51.78
40574;BME280;26283;49.020;8.644;2023-09-07T08:57:15;99566.34;;;24.97;51.75
40574;BME280;26283;49.020;8.644;2023-09-07T08:59:42;99574.00;;;25.00;51.72
40574;BME280;26283;49.020;8.644;2023-09-07T09:02:09;99570.97;;;25.02;51.68
40574;BME280;26283;49.020;8.644;2023-09-07T09:04:36;99571.16;;;25.05;51.65
40574;BME280;26283;49.020;8.644;2023-09-07T09:07:01;99575.56;;;25.06;51.62
40574;BME280;26283;49.020;8.644;2023-09-07T09:09:29;99576.59;;;25.10;51.62
40574;BME280;26283;49.020;8.644;2023-09-07T09:12:05;99577.06;;;25.12;51.59
40574;BME280;26283;49.020;8.644;2023-09-07T09:14:31;99577.59;;;25.14;51.55
40574;BME280;26283;49.020;8.644;2023-09-07T09:16:56;99575.84;;;25.18;51.54
40574;BME280;26283;49.020;8.644;2023-09-07T09:19:31;99573.59;;;25.20;51.50
40574;BME280;26283;49.020;8.644;2023-09-07T09:21:57;99565.84;;;25.22;51.45
40574;BME280;26283;49.020;8.644;2023-09-07T09:24:22;99570.75;;;25.25;51.42
40574;BME280;26283;49.020;8.644;2023-09-07T09:26:48;99570.12;;;25.28;51.40
40574;BME280;26283;49.020;8.644;2023-09-07T09:29:13;99575.03;;;25.32;51.37
40574;BME280;26283;49.020;8.644;2023-09-07T09:31:40;99561.72;;;25.34;51.33
40574;BME280;26283;49.020;8.644;2023-09-07T09:34:06;99553.13;;;25.35;51.31
40574;BME280;26283;49.020;8.644;2023-09-07T09:36:35;99548.94;;;25.38;51.24
40574;BME280;26283;49.020;8.644;2023-09-07T09:39:01;99555.78;;;25.40;51.20
40574;BME280;26283;49.020;8.644;2023-09-07T09:41:30;99552.41;;;25.43;51.15
40574;BME280;26283;49.020;8.644;2023-09-07T09:43:57;99547.41;;;25.45;51.10
40574;BME280;26283;49.020;8.644;2023-09-07T09:46:24;99555.38;;;25.47;51.05
40574;BME280;26283;49.020;8.644;2023-09-07T09:48:50;99552.00;;;25.50;51.01
40574;BME280;26283;49.020;8.644;2023-09-07T09:51:17;99556.41;;;25.51;50.96
40574;BME280;26283;49.020;8.644;2023-09-07T09:53:44;99550.56;;;25.52;50.93
40574;BME280;26283;49.020;8.644;2023-09-07T09:56:10;99557.38;;;25.55;50.89
40574;BME280;26283;49.020;8.644;2023-09-07T09:58:35;99556.78;;;25.58;50.84
40574;BME280;26283;49.020;8.644;2023-09-07T10:01:01;99553.69;;;25.59;50.80
40574;BME280;26283;49.020;8.644;2023-09-07T10:03:37;99554.22;;;25.61;50.75
40574;BME280;26283;49.020;8.644;2023-09-07T10:06:12;99552.81;;;25.64;50.69
40574;BME280;26283;49.020;8.644;2023-09-07T10:08:39;99556.06;;;25.66;50.66
40574;BME280;26283;49.020;8.644;2023-09-07T10:11:08;99549.44;;;25.67;50.62
40574;BME280;26283;49.020;8.644;2023-09-07T10:13:36;99549.94;;;25.69;50.58
40574;BME280;26283;49.020;8.644;2023-09-07T10:16:06;99546.56;;;25.72;50.55
40574;BME280;26283;49.020;8.644;2023-09-07T10:18:37;99541.84;;;25.73;50.49
40574;BME280;26283;49.020;8.644;2023-09-07T10:21:03;99536.84;;;25.75;50.46
40574;BME280;26283;49.020;8.644;2023-09-07T10:23:42;99533.78;;;25.76;50.41
40574;BME280;26283;49.020;8.644;2023-09-07T10:26:13;99535.87;;;25.79;50.38
40574;BME280;26283;49.020;8.644;2023-09-07T10:28:39;99537.50;;;25.80;50.34
40574;BME280;26283;49.020;8.644;2023-09-07T10:31:06;99536.37;;;25.81;50.31
40574;BME280;26283;49.020;8.644;2023-09-07T10:33:33;99539.66;;;25.83;50.27
40574;BME280;26283;49.020;8.644;2023-09-07T10:35:59;99531.88;;;25.85;50.24
40574;BME280;26283;49.020;8.644;2023-09-07T10:38:25;99530.75;;;25.86;50.21
40574;BME280;26283;49.020;8.644;2023-09-07T10:40:58;99530.44;;;25.88;50.17
40574;BME280;26283;49.020;8.644;2023-09-07T10:43:25;99516.31;;;25.89;50.15
40574;BME280;26283;49.020;8.644;2023-09-07T10:45:50;99523.47;;;25.90;50.13
40574;BME280;26283;49.020;8.644;2023-09-07T10:48:16;99527.87;;;25.91;50.10
40574;BME280;26283;49.020;8.644;2023-09-07T10:50:52;99520.09;;;25.93;50.06
40574;BME280;26283;49.020;8.644;2023-09-07T10:53:31;99517.84;;;25.95;50.03
40574;BME280;26283;49.020;8.644;2023-09-07T10:55:59;99516.72;;;25.97;50.01
40574;BME280;26283;49.020;8.644;2023-09-07T10:58:31;99514.75;;;25.97;49.99
40574;BME280;26283;49.020;8.644;2023-09-07T11:01:04;99518.34;;;25.98;49.97
40574;BME280;26283;49.020;8.644;2023-09-07T11:03:33;99515.25;;;25.99;49.95
40574;BME280;26283;49.020;8.644;2023-09-07T11:08:33;99511.03;;;26.02;49.91
40574;BME280;26283;49.020;8.644;2023-09-07T11:11:01;99511.03;;;26.02;49.89
40574;BME280;26283;49.020;8.644;2023-09-07T11:13:28;99502.44;;;26.03;49.88
40574;BME280;26283;49.020;8.644;2023-09-07T11:15:55;99514.00;;;26.05;49.86
40574;BME280;26283;49.020;8.644;2023-09-07T11:18:24;99497.41;;;26.05;49.85
40574;BME280;26283;49.020;8.644;2023-09-07T11:20:56;99501.81;;;26.06;49.85
40574;BME280;26283;49.020;8.644;2023-09-07T11:23:21;99498.22;;;26.06;49.83
40574;BME280;26283;49.020;8.644;2023-09-07T11:25:49;99495.97;;;26.08;49.82
40574;BME280;26283;49.020;8.644;2023-09-07T11:28:17;99499.56;;;26.08;49.81
40574;BME280;26283;49.020;8.644;2023-09-07T11:33:16;99498.41;;;26.09;49.77
40574;BME280;26283;49.020;8.644;2023-09-07T11:35:42;99496.47;;;26.10;49.78
40574;BME280;26283;49.020;8.644;2023-09-07T11:38:07;99499.75;;;26.12;49.77
40574;BME280;26283;49.020;8.644;2023-09-07T11:40:36;99497.78;;;26.12;49.75
40574;BME280;26283;49.020;8.644;2023-09-07T11:43:01;99496.66;;;26.13;49.73
40574;BME280;26283;49.020;8.644;2023-09-07T11:45:27;99488.38;;;26.13;49.71
40574;BME280;26283;49.020;8.644;2023-09-07T11:47:53;99496.66;;;26.13;49.72
40574;BME280;26283;49.020;8.644;2023-09-07T11:50:18;99498.00;;;26.16;49.71
40574;BME280;26283;49.020;8.644;2023-09-07T11:52:44;99495.22;;;26.16;49.71
40574;BME280;26283;49.020;8.644;2023-09-07T11:55:10;99492.47;;;26.16;49.69
40574;BME280;26283;49.020;8.644;2023-09-07T11:57:36;99496.84;;;26.17;49.70
40574;BME280;26283;49.020;8.644;2023-09-07T12:00:03;99499.31;;;26.18;49.68
40574;BME280;26283;49.020;8.644;2023-09-07T12:02:30;99493.78;;;26.18;49.67
40574;BME280;26283;49.020;8.644;2023-09-07T14:10:19;99403.50;;;26.84;50.58
40574;BME280;26283;49.020;8.644;2023-09-07T14:12:44;99403.50;;;26.84;50.58
40574;BME280;26283;49.020;8.644;2023-09-07T14:15:12;99408.44;;;26.48;50.98
40574;BME280;26283;49.020;8.644;2023-09-07T14:17:37;99409.13;;;26.53;50.85
40574;BME280;26283;49.020;8.644;2023-09-07T14:20:03;99404.09;;;26.55;50.71
40574;BME280;26283;49.020;8.644;2023-09-07T14:22:29;99398.41;;;26.60;50.60
40574;BME280;26283;49.020;8.644;2023-09-07T14:24:55;99402.50;;;26.63;50.51
40574;BME280;26283;49.020;8.644;2023-09-07T14:27:21;99408.47;;;26.65;50.44
40574;BME280;26283;49.020;8.644;2023-09-07T14:29:46;99396.78;;;26.68;50.38
40574;BME280;26283;49.020;8.644;2023-09-07T14:32:11;99406.41;;;26.71;50.33
40574;BME280;26283;49.020;8.644;2023-09-07T14:34:37;99396.97;;;26.72;50.29
40574;BME280;26283;49.020;8.644;2023-09-07T14:37:02;99393.88;;;26.73;50.25
40574;BME280;26283;49.020;8.644;2023-09-07T14:39:28;99396.31;;;26.75;50.23
40574;BME280;26283;49.020;8.644;2023-09-07T14:41:53;99394.06;;;26.77;50.14
40574;BME280;26283;49.020;8.644;2023-09-07T14:44:19;99400.06;;;26.79;50.08
40574;BME280;26283;49.020;8.644;2023-09-07T14:46:45;99397.81;;;26.81;50.06
40574;BME280;26283;49.020;8.644;2023-09-07T14:49:12;99395.84;;;26.81;50.03
40574;BME280;26283;49.020;8.644;2023-09-07T14:51:37;99400.25;;;26.82;50.07
40574;BME280;26283;49.020;8.644;2023-09-07T14:54:05;99398.31;;;26.83;50.07
40574;BME280;26283;49.020;8.644;2023-09-07T14:56:31;99399.13;;;26.83;50.06
40574;BME280;26283;49.020;8.644;2023-09-07T14:59:00;99394.03;;;26.85;50.05
40574;BME280;26283;49.020;8.644;2023-09-07T15:01:26;99387.38;;;26.86;50.05
40574;BME280;26283;49.020;8.644;2023-09-07T15:03:51;99380.72;;;26.87;50.05
40574;BME280;26283;49.020;8.644;2023-09-07T15:06:18;99378.75;;;26.88;50.07